Time;durP1;ratioP1;P1;durP2;ratioP2;P2;SDS_P1;SDS_P2;PMS_P1;PMS_P2;Temp;Humidity;BMP_temperature;BMP_pressure;BME280_temperature;BME280_humidity;BME280_pressure;Samples;Min_cycle;Max_cycle;Signal;HPM_P1;HPM_P2
2023/03/21 00:00:57;;;;;;;35.42;28.50;;;13.50;94.60;;;;;;5114509;28;20043;-81
2023/03/21 00:03:24;;;;;;;33.45;27.42;;;13.50;94.70;;;;;;5057333;22;20056;-82
2023/03/21 00:05:52;;;;;;;33.60;25.92;;;13.50;94.60;;;;;;5035174;28;20053;-82
2023/03/21 00:08:22;;;;;;;36.92;26.63;;;13.50;94.60;;;;;;5034437;28;20037;-82
2023/03/21 00:10:55;;;;;;;35.85;26.60;;;13.60;94.70;;;;;;5033961;28;20067;-82
2023/03/21 00:13:20;;;;;;;41.75;26.90;;;13.60;94.80;;;;;;5054011;28;20052;-82
2023/03/21 00:15:49;;;;;;;33.47;25.45;;;13.60;94.80;;;;;;5052407;28;20116;-82
2023/03/21 00:18:16;;;;;;;31.90;24.38;;;13.60;94.60;;;;;;5054478;28;20041;-82
2023/03/21 00:20:46;;;;;;;32.08;23.05;;;13.60;94.90;;;;;;5055040;28;20033;-82
2023/03/21 00:23:12;;;;;;;34.88;24.35;;;13.60;94.90;;;;;;5057906;28;20029;-82
2023/03/21 00:25:37;;;;;;;33.50;21.20;;;13.60;94.80;;;;;;5053434;28;20111;-81
2023/03/21 00:28:03;;;;;;;32.90;20.65;;;13.50;94.80;;;;;;5052826;28;20033;-82
2023/03/21 00:30:29;;;;;;;28.63;17.70;;;13.50;94.90;;;;;;5052601;28;20033;-81
2023/03/21 00:32:54;;;;;;;31.52;19.00;;;13.40;94.80;;;;;;5053172;28;20037;-82
2023/03/21 00:35:20;;;;;;;30.55;18.20;;;13.30;94.90;;;;;;5053293;28;20047;-82
2023/03/21 00:37:46;;;;;;;34.10;19.70;;;13.20;95.00;;;;;;5035480;28;20377;-81
2023/03/21 00:40:12;;;;;;;33.28;19.25;;;13.10;95.00;;;;;;5053204;28;20480;-82
2023/03/21 00:42:38;;;;;;;30.88;17.95;;;13.10;95.10;;;;;;5053817;28;20465;-81
2023/03/21 00:45:05;;;;;;;35.60;20.90;;;13.10;95.20;;;;;;5053866;28;20068;-82
2023/03/21 00:47:31;;;;;;;31.85;19.40;;;13.00;95.10;;;;;;5052779;28;20040;-81
2023/03/21 00:49:56;;;;;;;33.50;19.92;;;13.00;95.40;;;;;;5052436;28;20025;-81
2023/03/21 00:52:22;;;;;;;32.22;19.80;;;13.10;95.30;;;;;;5052862;28;20110;-83
2023/03/21 00:54:48;;;;;;;33.42;19.83;;;13.10;95.30;;;;;;5052571;28;20084;-81
2023/03/21 00:57:14;;;;;;;32.13;18.90;;;13.10;95.40;;;;;;5052421;28;20469;-80
2023/03/21 00:59:39;;;;;;;30.17;19.27;;;13.00;95.30;;;;;;5052090;28;20083;-83
2023/03/21 01:02:08;;;;;;;34.40;20.83;;;13.00;95.40;;;;;;5052607;28;20128;-83
2023/03/21 01:04:34;;;;;;;40.70;23.17;;;12.90;95.10;;;;;;5052155;28;20583;-82
2023/03/21 01:07:00;;;;;;;41.47;23.05;;;12.80;95.50;;;;;;5057523;28;20148;-81
2023/03/21 01:09:26;;;;;;;42.28;23.10;;;12.80;95.50;;;;;;5058845;28;20142;-81
2023/03/21 01:11:52;;;;;;;43.08;22.80;;;12.70;95.40;;;;;;5056508;28;20029;-83
2023/03/21 01:14:21;;;;;;;39.72;23.55;;;12.70;95.60;;;;;;5038264;28;20056;-82
2023/03/21 01:16:47;;;;;;;40.33;23.92;;;12.60;95.80;;;;;;5056112;28;20472;-82
2023/03/21 01:19:15;;;;;;;35.42;21.38;;;12.70;95.80;;;;;;5055977;28;20108;-82
2023/03/21 01:21:42;;;;;;;35.88;22.02;;;12.80;95.90;;;;;;5057419;28;20025;-80
2023/03/21 01:24:09;;;;;;;35.60;21.77;;;12.80;95.80;;;;;;5059400;28;20048;-82
2023/03/21 01:26:36;;;;;;;34.88;21.00;;;12.90;95.80;;;;;;5039696;28;20029;-81
2023/03/21 01:29:03;;;;;;;30.20;19.70;;;12.90;95.80;;;;;;5059940;28;20507;-82
2023/03/21 01:31:29;;;;;;;29.75;19.25;;;12.90;95.70;;;;;;5063002;28;20155;-80
2023/03/21 01:36:36;;;;;;;28.75;18.55;;;12.90;95.10;;;;;;5450331;22;20049;-73
2023/03/21 01:39:03;;;;;;;27.27;17.23;;;12.80;95.60;;;;;;5054795;28;20558;-73
2023/03/21 01:41:37;;;;;;;27.85;16.20;;;12.70;95.60;;;;;;5055104;28;20041;-73
2023/03/21 01:44:04;;;;;;;26.95;17.20;;;12.60;95.00;;;;;;5054852;28;20041;-72
2023/03/21 01:46:38;;;;;;;26.42;16.92;;;12.60;95.70;;;;;;5055567;28;20531;-73
2023/03/21 01:49:15;;;;;;;27.48;17.00;;;12.60;95.50;;;;;;5055018;28;20408;-74
2023/03/21 01:51:50;;;;;;;24.73;16.17;;;12.50;95.50;;;;;;5055003;28;20033;-74
2023/03/21 01:54:23;;;;;;;24.83;16.55;;;12.30;95.60;;;;;;5055215;28;20112;-72
2023/03/21 01:56:51;;;;;;;24.77;16.48;;;12.30;95.70;;;;;;5036742;28;20115;-74
2023/03/21 01:59:20;;;;;;;24.55;17.23;;;12.30;95.70;;;;;;5054751;28;20080;-74
2023/03/21 02:01:47;;;;;;;23.88;16.52;;;12.30;95.70;;;;;;5036787;28;20421;-74
2023/03/21 02:04:13;;;;;;;25.13;16.48;;;12.30;95.60;;;;;;5054632;28;20041;-73
2023/03/21 02:06:48;;;;;;;22.27;16.08;;;12.30;95.50;;;;;;5054451;28;20485;-74
2023/03/21 02:09:18;;;;;;;24.52;16.80;;;12.30;95.70;;;;;;5054495;28;20209;-74
2023/03/21 02:11:45;;;;;;;22.52;16.20;;;12.30;95.60;;;;;;5054401;28;20029;-73
2023/03/21 02:14:14;;;;;;;25.33;17.48;;;12.30;95.70;;;;;;5054852;28;20036;-73
2023/03/21 02:16:42;;;;;;;23.38;16.15;;;12.30;95.60;;;;;;5053874;28;20033;-74
2023/03/21 02:19:22;;;;;;;22.83;16.52;;;12.30;95.20;;;;;;5054202;28;20044;-73
2023/03/21 02:22:15;;;;;;;25.63;16.70;;;12.30;95.30;;;;;;5054277;28;20052;-73
2023/03/21 02:24:47;;;;;;;23.83;15.87;;;12.20;95.20;;;;;;5054378;28;20102;-73
2023/03/21 02:27:22;;;;;;;22.17;15.77;;;12.10;95.20;;;;;;5054276;28;20264;-73
2023/03/21 02:30:03;;;;;;;24.25;15.20;;;12.10;95.30;;;;;;5054015;28;20021;-73
2023/03/21 02:32:47;;;;;;;22.88;15.25;;;12.10;95.80;;;;;;5054262;28;20128;-73
2023/03/21 02:35:22;;;;;;;22.88;15.07;;;12.10;95.30;;;;;;5054129;28;20107;-73
2023/03/21 02:37:54;;;;;;;21.50;15.32;;;12.20;95.40;;;;;;5073192;28;20051;-74
2023/03/21 02:40:54;;;;;;;20.95;14.38;;;12.20;95.90;;;;;;5073883;28;20103;-73
2023/03/21 02:43:30;;;;;;;22.27;14.98;;;12.20;95.40;;;;;;5056085;28;20072;-73
2023/03/21 02:46:25;;;;;;;23.00;15.30;;;12.20;95.70;;;;;;5056007;28;20120;-74
2023/03/21 02:49:07;;;;;;;21.58;15.88;;;12.20;95.30;;;;;;5073834;28;20508;-73
2023/03/21 02:51:35;;;;;;;20.98;15.02;;;12.20;95.70;;;;;;5073539;28;20058;-73
2023/03/21 02:54:05;;;;;;;22.75;14.73;;;12.20;95.70;;;;;;5055659;28;20028;-74
2023/03/21 02:56:32;;;;;;;20.55;14.70;;;12.20;95.90;;;;;;5073714;28;20060;-73
2023/03/21 02:58:59;;;;;;;21.58;13.98;;;12.20;95.70;;;;;;5073909;28;20389;-74
2023/03/21 03:01:25;;;;;;;17.20;13.48;;;12.20;95.70;;;;;;5073553;28;20036;-72
2023/03/21 03:03:51;;;;;;;20.58;14.25;;;12.10;95.70;;;;;;5073423;28;20159;-73
2023/03/21 03:06:43;;;;;;;20.02;13.55;;;12.10;95.50;;;;;;5055875;28;20396;-75
2023/03/21 03:09:38;;;;;;;20.38;13.85;;;12.10;95.20;;;;;;5073372;28;20042;-74
2023/03/21 03:12:45;;;;;;;19.13;13.98;;;12.10;95.20;;;;;;5065867;28;20032;-73
2023/03/21 03:15:28;;;;;;;20.40;14.05;;;12.10;95.20;;;;;;5045958;28;20108;-75
2023/03/21 03:18:31;;;;;;;21.67;14.85;;;12.10;95.20;;;;;;5073089;28;20451;-73
2023/03/21 03:21:15;;;;;;;21.75;14.43;;;12.10;95.10;;;;;;5054978;28;20039;-73
2023/03/21 03:23:49;;;;;;;20.63;14.52;;;12.10;95.10;;;;;;5072994;28;20401;-74
2023/03/21 03:26:25;;;;;;;;;;;12.10;95.70;;;;;;5073312;28;20039;-73
2023/03/21 03:28:55;;;;;;;18.73;13.75;;;12.20;95.20;;;;;;5054545;28;19919;-72
2023/03/21 03:31:32;;;;;;;20.67;14.80;;;12.20;95.70;;;;;;5054827;28;20391;-73
2023/03/21 03:34:05;;;;;;;21.13;15.02;;;12.20;95.70;;;;;;5073051;28;20403;-73
2023/03/21 03:36:38;;;;;;;21.73;14.93;;;12.20;95.60;;;;;;5072724;28;20695;-73
2023/03/21 03:39:07;;;;;;;20.95;14.52;;;12.20;95.60;;;;;;5072542;28;20340;-73
2023/03/21 03:41:42;;;;;;;20.95;14.70;;;12.30;95.70;;;;;;5054486;28;20059;-74
2023/03/21 03:44:08;;;;;;;20.25;14.63;;;12.30;95.60;;;;;;5072648;28;20119;-74
2023/03/21 03:46:46;;;;;;;20.45;13.85;;;12.30;95.70;;;;;;5072693;28;20524;-73
2023/03/21 03:49:20;;;;;;;21.95;14.43;;;12.30;94.80;;;;;;5072539;28;20082;-73
2023/03/21 03:51:45;;;;;;;;;;;12.30;95.50;;;;;;5072922;28;20029;-74
2023/03/21 03:54:18;;;;;;;18.70;13.13;;;12.30;95.50;;;;;;5072948;28;19978;-75
2023/03/21 03:56:45;;;;;;;19.17;14.98;;;12.30;95.50;;;;;;5072928;28;20032;-73
2023/03/21 03:59:18;;;;;;;19.15;15.27;;;12.20;95.30;;;;;;5054489;28;20033;-74
2023/03/21 04:01:44;;;;;;;17.55;13.55;;;12.20;95.30;;;;;;5072218;28;20048;-72
2023/03/21 04:04:10;;;;;;;19.75;14.77;;;12.10;95.30;;;;;;5072039;28;20626;-74
2023/03/21 04:06:37;;;;;;;21.48;14.30;;;12.10;95.40;;;;;;5072396;28;20051;-73
2023/03/21 04:09:04;;;;;;;18.17;13.63;;;12.10;95.20;;;;;;5072647;28;20029;-74
2023/03/21 04:11:30;;;;;;;19.65;15.50;;;12.10;95.20;;;;;;5054295;28;20033;-73
2023/03/21 04:13:56;;;;;;;20.00;15.48;;;12.10;95.10;;;;;;5072265;28;20032;-74
2023/03/21 04:16:22;;;;;;;22.63;18.35;;;12.20;95.10;;;;;;5072224;28;20028;-74
2023/03/21 04:18:48;;;;;;;21.55;16.13;;;12.20;95.20;;;;;;5072387;28;20067;-75
2023/03/21 04:21:14;;;;;;;19.17;15.63;;;12.20;95.00;;;;;;5072153;28;20064;-74
2023/03/21 04:23:40;;;;;;;23.17;16.20;;;12.20;94.90;;;;;;5072354;28;20102;-74
2023/03/21 04:26:07;;;;;;;20.52;15.55;;;12.10;94.80;;;;;;5072477;28;20483;-74
2023/03/21 04:28:34;;;;;;;20.33;15.38;;;12.10;95.20;;;;;;5072058;28;20056;-73
2023/03/21 04:31:00;;;;;;;19.70;15.63;;;12.10;95.10;;;;;;5072348;28;20042;-74
2023/03/21 04:33:26;;;;;;;21.23;15.63;;;12.10;94.90;;;;;;5071824;28;20119;-73
2023/03/21 04:35:57;;;;;;;20.73;16.33;;;12.00;94.80;;;;;;5072223;28;20067;-74
2023/03/21 04:38:25;;;;;;;21.42;16.58;;;12.00;94.60;;;;;;5072483;28;20035;-74
2023/03/21 04:40:51;;;;;;;21.23;17.50;;;12.00;95.00;;;;;;5074193;28;20481;-73
2023/03/21 04:43:17;;;;;;;21.27;16.95;;;12.10;94.80;;;;;;5075885;28;20087;-74
2023/03/21 04:45:43;;;;;;;24.33;16.73;;;12.20;94.80;;;;;;5075813;28;20415;-74
2023/03/21 04:48:09;;;;;;;21.98;17.88;;;12.10;94.60;;;;;;5075840;28;20025;-74
2023/03/21 04:50:35;;;;;;;23.35;17.35;;;12.10;94.80;;;;;;5075804;28;20043;-73
2023/03/21 04:53:01;;;;;;;22.40;17.90;;;12.10;94.80;;;;;;5075760;28;20017;-72
2023/03/21 04:55:30;;;;;;;23.13;17.80;;;12.00;94.70;;;;;;5075879;28;20060;-74
2023/03/21 04:57:56;;;;;;;25.70;18.55;;;12.00;94.90;;;;;;5075814;28;20040;-74
2023/03/21 05:00:22;;;;;;;21.50;17.75;;;11.90;94.70;;;;;;5075394;28;20404;-74
2023/03/21 05:02:48;;;;;;;22.52;18.23;;;11.90;94.80;;;;;;5075345;28;20039;-73
2023/03/21 05:05:13;;;;;;;22.48;17.33;;;11.80;94.80;;;;;;5075507;28;20041;-74
2023/03/21 05:07:40;;;;;;;19.95;16.73;;;11.80;94.90;;;;;;5057793;28;20040;-74
2023/03/21 05:10:09;;;;;;;18.90;15.70;;;11.80;94.90;;;;;;5075698;28;20502;-74
2023/03/21 05:12:35;;;;;;;20.50;16.25;;;11.70;94.70;;;;;;5057630;28;20029;-73
2023/03/21 05:15:00;;;;;;;19.63;16.23;;;11.70;94.90;;;;;;5075516;28;20367;-74
2023/03/21 05:17:27;;;;;;;22.27;17.80;;;11.70;94.90;;;;;;5075280;28;20373;-75
2023/03/21 05:19:55;;;;;;;22.33;18.05;;;11.60;95.00;;;;;;5075373;28;20064;-74
2023/03/21 05:22:23;;;;;;;21.65;17.77;;;11.60;95.00;;;;;;5075280;28;20159;-73
2023/03/21 05:24:49;;;;;;;24.27;19.52;;;11.60;95.10;;;;;;5075280;28;20120;-75
2023/03/21 05:27:35;;;;;;;22.45;18.52;;;11.60;94.90;;;;;;5057143;28;20025;-74
2023/03/21 05:30:06;;;;;;;22.80;18.65;;;11.60;94.70;;;;;;5075000;28;20076;-73
2023/03/21 05:32:32;;;;;;;21.88;18.45;;;11.60;94.90;;;;;;5075173;28;20060;-74
2023/03/21 05:34:57;;;;;;;21.55;18.67;;;11.60;95.10;;;;;;5075158;28;20048;-73
2023/03/21 05:37:23;;;;;;;23.58;18.85;;;11.60;95.10;;;;;;5056671;28;20101;-73
2023/03/21 05:39:49;;;;;;;20.90;17.45;;;11.60;95.00;;;;;;5074839;28;20040;-74
2023/03/21 05:42:17;;;;;;;22.98;17.67;;;11.70;95.10;;;;;;5056682;28;20043;-72
2023/03/21 05:44:44;;;;;;;22.25;18.90;;;11.70;95.10;;;;;;5074679;28;20059;-74
2023/03/21 05:47:10;;;;;;;23.52;18.65;;;11.70;95.20;;;;;;5074779;28;20377;-73
2023/03/21 05:49:36;;;;;;;20.90;17.77;;;11.70;95.20;;;;;;5056758;28;20037;-75
2023/03/21 05:52:02;;;;;;;23.25;18.63;;;11.80;95.10;;;;;;5074087;28;20059;-73
2023/03/21 05:54:28;;;;;;;22.95;18.48;;;11.90;94.90;;;;;;5074660;28;20524;-74
2023/03/21 05:56:53;;;;;;;25.33;18.88;;;11.90;95.00;;;;;;5074446;28;20031;-73
2023/03/21 05:59:19;;;;;;;21.98;17.75;;;11.90;95.00;;;;;;5074538;28;20476;-73
2023/03/21 06:01:45;;;;;;;24.10;17.35;;;11.90;94.80;;;;;;5074518;28;20028;-74
2023/03/21 06:04:11;;;;;;;19.98;15.80;;;11.90;95.00;;;;;;5074269;28;20036;-73
2023/03/21 06:06:37;;;;;;;20.02;16.38;;;11.90;94.80;;;;;;5074298;28;20110;-75
2023/03/21 06:09:03;;;;;;;18.65;15.07;;;12.00;94.80;;;;;;5074455;28;20071;-73
2023/03/21 06:11:31;;;;;;;19.42;16.08;;;12.00;94.90;;;;;;5073890;28;20029;-73
2023/03/21 06:13:57;;;;;;;21.30;16.35;;;11.90;94.80;;;;;;5074409;28;20086;-74
2023/03/21 06:16:23;;;;;;;19.10;15.50;;;11.90;94.60;;;;;;5074234;28;20387;-74
2023/03/21 06:18:48;;;;;;;17.83;15.02;;;11.90;94.70;;;;;;5074105;28;20041;-75
2023/03/21 06:21:15;;;;;;;18.45;14.77;;;12.00;94.80;;;;;;5073830;28;20116;-73
2023/03/21 06:23:40;;;;;;;17.13;14.30;;;12.00;94.60;;;;;;5055791;28;20043;-74
2023/03/21 06:26:07;;;;;;;18.67;15.07;;;12.10;94.50;;;;;;5073421;28;20037;-73
2023/03/21 06:28:33;;;;;;;19.02;15.43;;;12.20;94.60;;;;;;5055604;28;20032;-73
2023/03/21 06:30:59;;;;;;;19.15;15.65;;;12.30;94.20;;;;;;5055483;28;20033;-75
2023/03/21 06:33:25;;;;;;;17.63;14.10;;;12.50;94.00;;;;;;5073951;28;20388;-74
2023/03/21 06:35:55;;;;;;;16.98;14.00;;;12.60;93.90;;;;;;5073962;28;20176;-73
2023/03/21 06:38:21;;;;;;;17.23;13.77;;;12.70;93.70;;;;;;5074435;28;20037;-75
2023/03/21 06:40:47;;;;;;;16.73;13.00;;;12.90;93.50;;;;;;5073912;28;20024;-74
2023/03/21 06:43:15;;;;;;;13.95;11.50;;;12.90;93.10;;;;;;5073183;28;20040;-75
2023/03/21 06:45:41;;;;;;;15.00;11.50;;;12.90;92.90;;;;;;5073483;28;20029;-75
2023/03/21 06:48:07;;;;;;;13.93;11.18;;;13.00;92.80;;;;;;5073687;28;20033;-75
2023/03/21 06:50:33;;;;;;;13.27;10.68;;;13.10;92.60;;;;;;5073346;28;20033;-74
2023/03/21 06:52:58;;;;;;;14.80;11.45;;;13.10;92.40;;;;;;5073510;28;20032;-77
2023/03/21 06:55:27;;;;;;;19.50;12.75;;;13.20;92.20;;;;;;5073431;28;20037;-74
2023/03/21 06:57:54;;;;;;;14.23;10.80;;;13.40;92.10;;;;;;5073063;28;20029;-75
2023/03/21 07:00:20;;;;;;;16.40;12.07;;;13.50;91.90;;;;;;5054548;28;20040;-75
2023/03/21 07:02:46;;;;;;;14.63;11.00;;;13.60;91.90;;;;;;5072682;28;20047;-74
2023/03/21 07:05:12;;;;;;;13.98;10.60;;;13.70;91.80;;;;;;5071959;28;20508;-75
2023/03/21 07:07:38;;;;;;;15.05;10.23;;;13.80;91.50;;;;;;5072551;28;20436;-76
2023/03/21 07:10:05;;;;;;;14.77;9.85;;;13.90;91.40;;;;;;5083474;28;20040;-78
2023/03/21 07:12:34;;;;;;;12.60;9.65;;;14.10;91.40;;;;;;5075221;28;20036;-82
2023/03/21 07:15:01;;;;;;;12.23;9.82;;;14.20;90.90;;;;;;5092738;28;20032;-81
2023/03/21 07:17:27;;;;;;;13.73;9.45;;;14.30;90.80;;;;;;5094357;28;20117;-87
2023/03/21 07:19:53;;;;;;;11.77;9.02;;;14.20;90.50;;;;;;5093996;28;20028;-81
2023/03/21 07:22:19;;;;;;;13.88;9.30;;;14.40;90.60;;;;;;5094350;28;20051;-85
2023/03/21 07:24:47;;;;;;;13.35;8.18;;;14.40;90.50;;;;;;5092878;28;20098;-82
2023/03/21 07:27:17;;;;;;;13.02;8.05;;;14.50;90.20;;;;;;5092908;28;20105;-84
2023/03/21 07:29:43;;;;;;;13.13;7.95;;;14.60;90.30;;;;;;5093245;28;20538;-82
2023/03/21 07:32:10;;;;;;;11.93;7.55;;;14.70;89.90;;;;;;5081829;28;20055;-84
2023/03/21 07:34:36;;;;;;;13.75;7.85;;;14.80;89.60;;;;;;5055608;28;20040;-74
2023/03/21 07:37:03;;;;;;;9.82;7.05;;;14.80;88.90;;;;;;5073960;28;20039;-84
2023/03/21 07:39:29;;;;;;;13.63;7.05;;;14.80;89.20;;;;;;5074921;28;20032;-83
2023/03/21 07:41:55;;;;;;;9.88;6.70;;;14.80;88.00;;;;;;5074019;28;20177;-84
2023/03/21 07:44:22;;;;;;;10.63;6.70;;;14.80;87.70;;;;;;5073837;28;20048;-84
2023/03/21 07:46:48;;;;;;;14.13;7.93;;;14.90;87.30;;;;;;5074002;28;20028;-85
2023/03/21 07:49:13;;;;;;;12.05;7.28;;;14.90;87.10;;;;;;5077236;28;20059;-84
2023/03/21 07:51:39;;;;;;;10.07;7.63;;;15.00;87.30;;;;;;5074306;28;20120;-85
2023/03/21 07:54:05;;;;;;;9.23;6.68;;;15.10;87.00;;;;;;5074939;28;20056;-86
2023/03/21 07:56:31;;;;;;;10.55;6.70;;;15.10;86.90;;;;;;5074750;28;20033;-84
2023/03/21 07:58:58;;;;;;;11.10;7.47;;;15.10;86.30;;;;;;5078090;28;20102;-85
2023/03/21 08:01:24;;;;;;;11.88;7.45;;;15.00;85.80;;;;;;5056088;28;20029;-84
2023/03/21 08:03:52;;;;;;;10.52;7.47;;;15.00;85.30;;;;;;5073568;28;20044;-82
2023/03/21 08:06:19;;;;;;;11.90;7.35;;;14.90;85.80;;;;;;5073392;28;20028;-86
2023/03/21 08:08:45;;;;;;;10.85;7.18;;;14.90;86.00;;;;;;5072324;28;20484;-82
2023/03/21 08:11:11;;;;;;;10.70;6.70;;;14.90;85.50;;;;;;5073714;28;20032;-83
2023/03/21 08:13:37;;;;;;;7.95;6.22;;;14.90;85.50;;;;;;5074202;28;20048;-83
2023/03/21 08:16:03;;;;;;;7.97;6.35;;;14.90;85.40;;;;;;5073638;28;20037;-87
2023/03/21 08:18:29;;;;;;;8.73;6.47;;;14.80;85.30;;;;;;5074367;28;20051;-83
2023/03/21 08:20:56;;;;;;;9.05;6.35;;;14.90;85.40;;;;;;5079620;28;20504;-84
2023/03/21 08:23:23;;;;;;;8.18;5.85;;;14.80;84.90;;;;;;5078934;28;20102;-84
2023/03/21 08:25:53;;;;;;;21.38;6.78;;;14.70;84.80;;;;;;5074398;28;20048;-83
2023/03/21 08:28:20;;;;;;;11.13;7.00;;;14.70;85.40;;;;;;5073707;28;20028;-84
2023/03/21 08:30:46;;;;;;;9.05;5.90;;;14.70;85.70;;;;;;5072875;28;20043;-85
2023/03/21 08:33:12;;;;;;;10.50;4.93;;;14.70;85.60;;;;;;5072451;28;20037;-85
2023/03/21 08:35:39;;;;;;;8.05;5.40;;;14.70;84.90;;;;;;5072383;28;20445;-80
2023/03/21 08:38:05;;;;;;;7.03;5.35;;;14.60;84.90;;;;;;5072785;28;20089;-85
2023/03/21 08:40:31;;;;;;;16.90;7.95;;;14.70;85.50;;;;;;5072604;28;20106;-84
2023/03/21 08:42:57;;;;;;;9.48;5.88;;;14.70;85.40;;;;;;5054565;28;20033;-84
2023/03/21 08:45:24;;;;;;;9.48;6.35;;;14.70;85.30;;;;;;5073011;28;20047;-83
2023/03/21 08:47:50;;;;;;;9.82;6.32;;;14.80;85.00;;;;;;5054504;28;20396;-82
2023/03/21 08:50:21;;;;;;;10.15;6.10;;;14.80;85.30;;;;;;5072390;28;20033;-83
2023/03/21 08:52:48;;;;;;;10.60;6.28;;;14.80;85.40;;;;;;5072451;28;20120;-83
2023/03/21 08:55:15;;;;;;;9.93;6.28;;;14.90;84.90;;;;;;5073313;28;20064;-84
2023/03/21 08:57:42;;;;;;;9.68;6.22;;;14.90;85.00;;;;;;5072377;28;20128;-83
2023/03/21 09:00:12;;;;;;;10.63;5.72;;;15.00;84.70;;;;;;5072533;28;20035;-82
2023/03/21 09:02:42;;;;;;;9.82;5.20;;;15.00;84.50;;;;;;5054409;28;20039;-84
2023/03/21 09:05:10;;;;;;;8.40;4.65;;;15.00;84.10;;;;;;5072934;28;20055;-84
2023/03/21 09:07:40;;;;;;;10.15;5.13;;;15.00;84.10;;;;;;5075223;28;20037;-83
2023/03/21 09:10:09;;;;;;;7.35;5.00;;;15.00;84.50;;;;;;5076958;28;20088;-83
2023/03/21 09:12:35;;;;;;;6.15;4.45;;;14.90;83.60;;;;;;5077115;28;20037;-79
2023/03/21 09:15:01;;;;;;;6.55;4.32;;;15.00;83.60;;;;;;5077114;28;20043;-83
2023/03/21 09:17:31;;;;;;;8.00;4.38;;;15.00;83.50;;;;;;5075262;28;20040;-82
2023/03/21 09:19:59;;;;;;;7.68;4.10;;;15.00;83.00;;;;;;5074078;28;20483;-83
2023/03/21 09:22:26;;;;;;;7.10;3.92;;;15.10;82.70;;;;;;5076282;28;20048;-81
2023/03/21 09:24:52;;;;;;;6.47;3.60;;;15.10;82.60;;;;;;5074067;28;20149;-83
2023/03/21 09:27:21;;;;;;;7.45;3.80;;;15.10;82.40;;;;;;5074974;28;20060;-82
2023/03/21 09:29:48;;;;;;;6.70;3.45;;;15.20;82.30;;;;;;5076905;28;20040;-83
2023/03/21 09:32:15;;;;;;;7.50;3.72;;;15.30;82.30;;;;;;5060489;28;20079;-83
2023/03/21 09:34:41;;;;;;;5.70;3.65;;;15.30;82.10;;;;;;5078486;28;20063;-83
2023/03/21 09:37:12;;;;;;;6.30;3.88;;;15.40;82.10;;;;;;5077756;28;20037;-84
2023/03/21 09:39:43;;;;;;;6.35;4.15;;;15.40;82.00;;;;;;5078505;28;20103;-83
2023/03/21 09:42:38;;;;;;;6.93;4.05;;;15.50;82.10;;;;;;5080425;28;20063;-82
2023/03/21 09:45:18;;;;;;;7.93;4.20;;;15.60;81.80;;;;;;5062741;28;20128;-83
2023/03/21 09:47:55;;;;;;;6.97;4.63;;;15.70;81.90;;;;;;5076420;28;20508;-84
2023/03/21 09:50:26;;;;;;;8.15;3.55;;;15.80;81.30;;;;;;5076684;28;20090;-83
2023/03/21 09:53:09;;;;;;;6.90;4.13;;;15.90;81.40;;;;;;5076315;28;20479;-84
2023/03/21 09:55:37;;;;;;;9.30;3.78;;;16.00;81.10;;;;;;5075957;28;20198;-84
2023/03/21 09:58:31;;;;;;;10.38;4.50;;;16.10;82.00;;;;;;5080579;28;20040;-83
2023/03/21 10:01:09;;;;;;;8.25;3.80;;;16.20;81.30;;;;;;5084384;28;20121;-83
2023/03/21 10:03:35;;;;;;;9.70;3.15;;;16.20;80.70;;;;;;5082921;28;20032;-83
2023/03/21 10:06:07;;;;;;;7.07;3.35;;;16.30;80.30;;;;;;5079000;28;20078;-83
2023/03/21 10:08:40;;;;;;;6.00;3.67;;;16.40;79.80;;;;;;5076518;28;20024;-83
2023/03/21 10:11:11;;;;;;;7.20;3.30;;;16.50;79.90;;;;;;5076847;28;20214;-83
2023/03/21 10:13:42;;;;;;;7.38;3.60;;;16.60;79.50;;;;;;5075234;28;20075;-83
2023/03/21 10:16:29;;;;;;;7.25;3.20;;;16.60;79.10;;;;;;5076482;28;20032;-83
2023/03/21 10:18:58;;;;;;;4.47;2.80;;;16.80;78.70;;;;;;5078037;28;20048;-83
2023/03/21 10:21:26;;;;;;;5.22;3.45;;;16.90;78.80;;;;;;5076536;28;20106;-85
2023/03/21 10:23:55;;;;;;;8.00;2.92;;;16.90;77.80;;;;;;5078975;28;20052;-84
2023/03/21 10:26:26;;;;;;;6.53;3.00;;;16.90;76.50;;;;;;5078082;28;20489;-82
2023/03/21 10:28:54;;;;;;;6.72;2.90;;;17.00;76.30;;;;;;5075479;28;20035;-84
2023/03/21 10:31:24;;;;;;;6.00;3.10;;;17.10;76.60;;;;;;5075551;28;20029;-82
2023/03/21 10:33:52;;;;;;;4.45;2.75;;;17.20;76.00;;;;;;5080337;28;20054;-81
2023/03/21 10:36:24;;;;;;;6.50;2.45;;;17.20;75.80;;;;;;5089557;28;20085;-83
2023/03/21 10:39:03;;;;;;;5.13;3.05;;;17.30;75.80;;;;;;5073571;28;20036;-84
2023/03/21 10:41:30;;;;;;;8.60;3.55;;;17.40;75.90;;;;;;5087103;28;20032;-83
2023/03/21 10:44:10;;;;;;;7.35;3.05;;;17.60;75.00;;;;;;5076117;28;20554;-83
2023/03/21 10:46:36;;;;;;;11.32;3.40;;;17.70;74.70;;;;;;5076526;28;20358;-82
2023/03/21 10:49:06;;;;;;;5.88;3.08;;;17.80;74.10;;;;;;5076079;28;20102;-83
2023/03/21 10:51:35;;;;;;;5.35;2.40;;;17.90;72.00;;;;;;5075227;28;20460;-83
2023/03/21 10:54:06;;;;;;;4.97;2.55;;;17.90;71.70;;;;;;5075294;28;20063;-83
2023/03/21 10:56:37;;;;;;;5.97;2.63;;;17.90;71.50;;;;;;5075461;28;20400;-85
2023/03/21 10:59:07;;;;;;;6.55;2.38;;;18.10;71.40;;;;;;5075155;28;20040;-84
2023/03/21 11:01:39;;;;;;;8.10;2.72;;;18.20;71.50;;;;;;5075350;28;20163;-83
2023/03/21 11:04:14;;;;;;;6.60;2.80;;;18.30;71.50;;;;;;5076615;28;20045;-85
2023/03/21 11:06:43;;;;;;;6.38;2.83;;;18.40;71.50;;;;;;5086534;28;20041;-84
2023/03/21 11:09:19;;;;;;;4.97;2.50;;;18.60;70.60;;;;;;5084846;28;20032;-83
2023/03/21 11:12:09;;;;;;;3.05;1.98;;;18.70;70.10;;;;;;5082797;28;20036;-83
2023/03/21 11:14:49;;;;;;;5.10;2.13;;;18.80;69.20;;;;;;5075833;28;20032;-84
2023/03/21 11:17:19;;;;;;;3.90;2.03;;;18.90;68.90;;;;;;5076300;28;20037;-83
2023/03/21 11:19:55;;;;;;;4.60;2.00;;;18.90;68.20;;;;;;5074743;28;20465;-84
2023/03/21 11:22:24;;;;;;;5.82;2.60;;;19.00;68.00;;;;;;5075030;28;20039;-84
2023/03/21 11:24:58;;;;;;;5.30;2.60;;;19.00;67.90;;;;;;5074376;28;20044;-84
2023/03/21 11:27:28;;;;;;;6.75;3.50;;;19.00;67.30;;;;;;5073960;28;20131;-86
2023/03/21 11:29:56;;;;;;;5.28;2.40;;;19.10;67.50;;;;;;5075356;28;20050;-85
2023/03/21 11:32:29;;;;;;;6.15;2.67;;;19.10;67.10;;;;;;5074948;28;20039;-84
2023/03/21 11:35:04;;;;;;;4.50;2.58;;;19.10;67.00;;;;;;5080817;28;20035;-85
2023/03/21 11:37:38;;;;;;;5.95;2.67;;;19.20;66.80;;;;;;5079444;28;20536;-86
2023/03/21 11:40:31;;;;;;;10.57;2.55;;;19.30;66.30;;;;;;5075430;28;20067;-84
2023/03/21 11:42:58;;;;;;;4.90;2.70;;;19.40;66.50;;;;;;5076628;28;20111;-83
2023/03/21 11:45:29;;;;;;;5.32;2.45;;;19.60;66.40;;;;;;5076002;28;20063;-84
2023/03/21 11:48:00;;;;;;;5.95;2.90;;;19.60;65.70;;;;;;5080666;28;20036;-83
2023/03/21 11:50:39;;;;;;;8.25;3.10;;;19.80;65.70;;;;;;5086341;28;20033;-85
2023/03/21 11:53:12;;;;;;;6.32;2.80;;;19.90;65.10;;;;;;5093937;28;20012;-83
2023/03/21 11:56:05;;;;;;;5.57;2.95;;;20.00;64.70;;;;;;5078408;28;20449;-83
2023/03/21 11:58:56;;;;;;;13.10;2.97;;;20.10;64.40;;;;;;5085178;28;20059;-86
2023/03/21 12:01:37;;;;;;;5.05;2.50;;;20.10;63.70;;;;;;5046369;28;20127;-83
2023/03/21 12:04:11;;;;;;;4.47;2.20;;;20.20;63.60;;;;;;5074643;28;20041;-85
2023/03/21 12:06:45;;;;;;;6.82;2.83;;;20.30;63.00;;;;;;5074530;28;20067;-82
2023/03/21 12:09:32;;;;;;;8.60;2.78;;;20.40;62.30;;;;;;5074584;28;20090;-85
2023/03/21 12:12:26;;;;;;;7.78;2.13;;;20.60;62.50;;;;;;5056859;28;20024;-85
2023/03/21 12:15:25;;;;;;;5.78;2.38;;;20.70;62.00;;;;;;5059103;28;20036;-83
2023/03/21 12:18:20;;;;;;;6.18;2.67;;;20.60;62.10;;;;;;5061979;28;20032;-85
2023/03/21 12:21:07;;;;;;;5.63;2.67;;;20.70;62.60;;;;;;5073478;28;20427;-86
2023/03/21 12:23:38;;;;;;;9.10;2.78;;;20.80;62.30;;;;;;5057616;28;20036;-84
2023/03/21 12:26:07;;;;;;;4.05;2.20;;;20.90;61.90;;;;;;5073663;28;20032;-85
2023/03/21 12:28:51;;;;;;;5.93;2.80;;;21.00;61.80;;;;;;5073879;28;20044;-84
2023/03/21 12:31:45;;;;;;;5.10;2.22;;;21.10;60.70;;;;;;5073915;28;20037;-85
2023/03/21 12:34:19;;;;;;;4.72;2.30;;;21.30;60.50;;;;;;5073021;28;20040;-85
2023/03/21 12:37:11;;;;;;;3.63;2.00;;;21.30;59.80;;;;;;5072526;28;20508;-82
2023/03/21 12:39:40;;;;;;;4.60;2.08;;;21.30;59.20;;;;;;5072695;28;20515;-85
2023/03/21 12:42:41;;;;;;;3.30;2.00;;;21.10;58.90;;;;;;5054739;28;20028;-85
2023/03/21 12:45:42;;;;;;;5.20;2.00;;;20.90;58.50;;;;;;5073064;28;20055;-84
2023/03/21 12:48:30;;;;;;;4.97;2.05;;;20.80;59.20;;;;;;5039194;28;20037;-84
2023/03/21 12:50:59;;;;;;;5.70;2.25;;;20.90;58.90;;;;;;5044564;28;20476;-84
2023/03/21 12:53:34;;;;;;;3.65;1.80;;;21.20;58.70;;;;;;5055114;28;20021;-82
2023/03/21 12:56:03;;;;;;;4.70;2.38;;;21.30;58.10;;;;;;5075145;28;20025;-84